createdAt,value
2018-03-01T00:00:01.374Z,95606.03
2018-03-01T00:03:24.692Z,95612.73
2018-03-01T00:06:48.068Z,95602.14
2018-03-01T00:10:11.379Z,95599.94
2018-03-01T00:13:34.804Z,95601.99
2018-03-01T00:16:58.173Z,95592.67
2018-03-01T00:20:21.467Z,95583.81
2018-03-01T00:23:45.505Z,95582.25
2018-03-01T00:27:09.566Z,95573.31
2018-03-01T00:30:32.948Z,95581.77
2018-03-01T00:33:56.999Z,95588.51
2018-03-01T00:37:21.040Z,95577.42
2018-03-01T00:40:44.355Z,95579.62
2018-03-01T00:44:08.405Z,95567.63
2018-03-01T00:47:31.717Z,95571.38
2018-03-01T00:50:55.069Z,95560.52
2018-03-01T00:54:19.157Z,95559.91
2018-03-01T00:57:43.195Z,95562.22
2018-03-01T01:01:08.276Z,95570.94
2018-03-01T01:04:31.705Z,95560.55
2018-03-01T01:07:55.044Z,95554.20
2018-03-01T01:11:19.168Z,95550.85
2018-03-01T01:14:42.490Z,95533.04
2018-03-01T01:18:05.767Z,95540.42
2018-03-01T01:21:29.837Z,95530.12
2018-03-01T01:24:53.129Z,95521.73
2018-03-01T01:28:17.251Z,95518.78
2018-03-01T01:31:40.567Z,95511.56
2018-03-01T01:35:03.847Z,95506.30
2018-03-01T01:38:27.895Z,95498.42
2018-03-01T01:41:51.937Z,95494.30
2018-03-01T01:45:15.213Z,95499.52
2018-03-01T01:48:38.513Z,95498.69
2018-03-01T01:52:02.561Z,95504.89
2018-03-01T01:55:25.893Z,95484.84
2018-03-01T01:58:49.191Z,95479.66
2018-03-01T02:02:12.503Z,95480.55
2018-03-01T02:05:36.552Z,95472.36
2018-03-01T02:08:59.821Z,95470.73
2018-03-01T02:12:23.125Z,95464.08
2018-03-01T02:15:46.438Z,95458.16
2018-03-01T02:19:10.491Z,95452.67
2018-03-01T02:22:33.770Z,95453.31
2018-03-01T02:25:57.075Z,95460.80
2018-03-01T02:29:21.128Z,95456.61
2018-03-01T02:32:44.508Z,95462.00
2018-03-01T02:36:07.817Z,95456.05
2018-03-01T02:39:31.172Z,95454.72
2018-03-01T02:42:54.449Z,95460.31
2018-03-01T02:46:17.744Z,95455.63
2018-03-01T02:49:41.804Z,95452.44
2018-03-01T02:53:05.147Z,95448.38
2018-03-01T02:56:29.213Z,95446.09
2018-03-01T02:59:52.548Z,95435.21
2018-03-01T03:03:15.916Z,95430.55
2018-03-01T03:06:39.290Z,95438.55
2018-03-01T03:10:02.655Z,95428.53
2018-03-01T03:13:25.965Z,95432.14
2018-03-01T03:16:49.267Z,95414.38
2018-03-01T03:20:13.310Z,95401.21
2018-03-01T03:23:36.651Z,95394.66
2018-03-01T03:26:59.950Z,95392.82
2018-03-01T03:30:24.005Z,95392.16
2018-03-01T03:33:48.143Z,95394.59
2018-03-01T03:37:11.512Z,95385.41
2018-03-01T03:40:34.884Z,95377.31
2018-03-01T03:43:58.253Z,95382.42
2018-03-01T03:47:21.539Z,95373.43
2018-03-01T03:50:45.666Z,95380.88
2018-03-01T03:54:09.805Z,95388.55
2018-03-01T03:57:33.934Z,95379.52
2018-03-01T04:00:57.228Z,95376.23
2018-03-01T04:04:20.567Z,95373.34
2018-03-01T04:07:43.859Z,95376.19
2018-03-01T04:11:07.929Z,95385.40
2018-03-01T04:14:31.236Z,95373.20
2018-03-01T04:17:54.556Z,95369.88
2018-03-01T04:21:17.862Z,95355.84
2018-03-01T04:24:41.934Z,95368.32
2018-03-01T04:28:06.028Z,95368.06
2018-03-01T04:31:30.110Z,95367.67
2018-03-01T04:34:54.233Z,95373.14
2018-03-01T04:38:17.543Z,95368.77
2018-03-01T04:41:40.824Z,95369.22
2018-03-01T04:45:04.110Z,95371.26
2018-03-01T04:48:28.173Z,95365.52
2018-03-01T04:51:55.446Z,95367.94
2018-03-01T04:55:18.804Z,95375.16
2018-03-01T04:58:42.178Z,95384.62
2018-03-01T05:02:05.551Z,95379.82
2018-03-01T05:05:28.868Z,95380.99
2018-03-01T05:08:52.143Z,95375.03
2018-03-01T05:12:16.252Z,95379.12
2018-03-01T05:15:40.361Z,95378.05
2018-03-01T05:19:03.668Z,95381.28
2018-03-01T05:22:26.993Z,95371.30
2018-03-01T05:25:50.287Z,95362.94
2018-03-01T05:29:14.357Z,95374.16
2018-03-01T05:32:37.658Z,95356.97
2018-03-01T05:36:00.995Z,95349.75
2018-03-01T05:39:25.131Z,95360.05
2018-03-01T05:42:49.495Z,95361.19
2018-03-01T05:46:12.897Z,95350.09
2018-03-01T05:49:36.267Z,95372.47
2018-03-01T05:53:02.243Z,95367.27
2018-03-01T05:56:26.386Z,95357.58
2018-03-01T05:59:50.524Z,95343.86
2018-03-01T06:03:13.894Z,95359.00
2018-03-01T06:06:38.081Z,95350.84
2018-03-01T06:10:01.406Z,95352.05
2018-03-01T06:13:25.539Z,95340.30
2018-03-01T06:16:48.982Z,95337.03
2018-03-01T06:20:13.179Z,95344.13
2018-03-01T06:23:36.572Z,95343.55
2018-03-01T06:26:59.924Z,95339.89
2018-03-01T06:30:23.398Z,95344.97
2018-03-01T06:33:47.467Z,95343.77
2018-03-01T06:37:11.556Z,95332.59
2018-03-01T06:40:34.936Z,95330.61
2018-03-01T06:43:58.309Z,95326.51
2018-03-01T06:47:21.552Z,95326.72
2018-03-01T06:50:45.719Z,95322.59
2018-03-01T06:54:09.099Z,95333.12
2018-03-01T06:57:32.466Z,95336.16
2018-03-01T07:00:55.750Z,95339.40
2018-03-01T07:04:19.113Z,95336.61
2018-03-01T07:07:43.208Z,95334.91
2018-03-01T07:11:07.345Z,95330.79
2018-03-01T07:14:31.481Z,95326.13
2018-03-01T07:17:54.850Z,95322.94
2018-03-01T07:21:18.119Z,95322.64
2018-03-01T07:24:41.484Z,95311.62
2018-03-01T07:28:04.856Z,95323.39
2018-03-01T07:31:28.188Z,95311.05
2018-03-01T07:34:52.314Z,95305.83
2018-03-01T07:38:15.588Z,95310.72
2018-03-01T07:41:39.719Z,95305.62
2018-03-01T07:45:03.024Z,95305.59
2018-03-01T07:48:26.406Z,95312.22
2018-03-01T07:51:49.743Z,95309.50
2018-03-01T07:55:13.787Z,95306.02
2018-03-01T07:58:37.872Z,95321.69
2018-03-01T08:02:01.993Z,95316.13
2018-03-01T08:05:26.057Z,95308.74
2018-03-01T08:08:50.098Z,95316.80
2018-03-01T08:12:13.377Z,95301.99
2018-03-01T08:15:36.659Z,95310.61
2018-03-01T08:19:00.785Z,95304.88
2018-03-01T08:22:24.089Z,95302.83
2018-03-01T08:25:47.472Z,95301.78
2018-03-01T08:29:10.778Z,95306.23
2018-03-01T08:32:34.067Z,95295.27
2018-03-01T08:35:58.136Z,95297.22
2018-03-01T08:39:21.451Z,95299.28
2018-03-01T08:42:45.492Z,95304.17
2018-03-01T08:46:08.799Z,95301.72
2018-03-01T08:49:32.937Z,95296.35
2018-03-01T08:52:56.216Z,95290.67
2018-03-01T08:56:19.487Z,95290.13
2018-03-01T08:59:42.777Z,95295.16
2018-03-01T09:03:06.907Z,95295.25
2018-03-01T09:06:30.275Z,95311.92
2018-03-01T09:09:53.616Z,95311.67
2018-03-01T09:13:17.654Z,95318.95
2018-03-01T09:16:40.953Z,95319.44
2018-03-01T09:20:05.083Z,95322.69
2018-03-01T09:23:28.359Z,95317.02
2018-03-01T09:26:52.400Z,95306.17
2018-03-01T09:30:16.443Z,95298.87
2018-03-01T09:33:39.777Z,95303.10
2018-03-01T09:37:03.111Z,95321.61
2018-03-01T09:40:26.399Z,95311.55
2018-03-01T09:43:50.435Z,95318.80
2018-03-01T09:47:14.491Z,95315.56
2018-03-01T09:50:37.791Z,95314.16
2018-03-01T09:54:01.924Z,95313.23
2018-03-01T09:57:26.059Z,95306.24
2018-03-01T10:00:50.204Z,95301.98
2018-03-01T10:04:14.880Z,95303.39
2018-03-01T10:07:38.978Z,95305.44
2018-03-01T10:11:03.062Z,95302.98
2018-03-01T10:14:26.431Z,95298.95
2018-03-01T10:17:49.721Z,95303.67
2018-03-01T10:21:13.756Z,95291.01
2018-03-01T10:24:37.106Z,95287.45
2018-03-01T10:28:00.403Z,95291.92
2018-03-01T10:31:23.750Z,95291.75
2018-03-01T10:34:47.893Z,95290.43
2018-03-01T10:38:12.025Z,95293.41
2018-03-01T10:41:35.306Z,95288.78
2018-03-01T10:44:59.427Z,95292.91
2018-03-01T10:48:22.703Z,95288.06
2018-03-01T10:51:46.795Z,95291.01
2018-03-01T10:55:10.922Z,95287.41
2018-03-01T10:58:34.288Z,95276.95
2018-03-01T11:01:59.866Z,95269.06
2018-03-01T11:05:24.005Z,95274.69
2018-03-01T11:08:48.083Z,95272.48
2018-03-01T11:12:12.122Z,95264.29
2018-03-01T11:15:35.399Z,95262.91
2018-03-01T11:18:59.446Z,95252.25
2018-03-01T11:22:23.566Z,95247.32
2018-03-01T11:25:47.014Z,95252.11
2018-03-01T11:29:10.377Z,95239.72
2018-03-01T11:32:33.778Z,95236.45
2018-03-01T11:35:57.915Z,95224.63
2018-03-01T11:39:21.285Z,95218.72
2018-03-01T11:42:44.571Z,95223.34
2018-03-01T11:46:08.689Z,95219.70
2018-03-01T11:49:31.953Z,95216.45
2018-03-01T11:52:55.333Z,95213.66
2018-03-01T11:56:18.623Z,95201.49
2018-03-01T11:59:41.962Z,95196.72
2018-03-01T12:03:05.351Z,95194.84
2018-03-01T12:06:29.475Z,95192.44
2018-03-01T12:09:52.750Z,95187.31
2018-03-01T12:13:16.025Z,95187.27
2018-03-01T12:16:40.151Z,95188.44
2018-03-01T12:20:03.777Z,95186.37
2018-03-01T12:23:27.199Z,95185.40
2018-03-01T12:26:50.465Z,95184.19
2018-03-01T12:30:13.782Z,95180.54
2018-03-01T12:33:37.055Z,95183.11
2018-03-01T12:37:01.251Z,95168.69
2018-03-01T12:40:25.366Z,95159.82
2018-03-01T12:43:48.701Z,95155.67
2018-03-01T12:47:12.072Z,95142.23
2018-03-01T12:50:35.441Z,95139.69
2018-03-01T12:53:58.749Z,95131.97
2018-03-01T12:57:22.143Z,95130.05
2018-03-01T13:00:46.265Z,95116.90
2018-03-01T13:04:10.414Z,95115.73
2018-03-01T13:07:34.499Z,95111.85
2018-03-01T13:10:58.618Z,95100.11
2018-03-01T13:14:22.046Z,95105.83
2018-03-01T13:17:45.378Z,95097.86
2018-03-01T13:21:09.449Z,95096.33
2018-03-01T13:24:32.877Z,95091.34
2018-03-01T13:27:56.197Z,95087.11
2018-03-01T13:31:19.497Z,95101.00
2018-03-01T13:34:47.217Z,95084.80
2018-03-01T13:38:10.606Z,95076.61
2018-03-01T13:41:33.877Z,95078.92
2018-03-01T13:44:57.231Z,95082.06
2018-03-01T13:48:20.509Z,95068.92
2018-03-01T13:51:43.790Z,95070.18
2018-03-01T13:55:07.920Z,95066.69
2018-03-01T13:58:31.249Z,95066.27
2018-03-01T14:01:55.332Z,95052.08
2018-03-01T14:05:19.467Z,95053.48
2018-03-01T14:08:42.731Z,95043.56
2018-03-01T14:16:02.355Z,95030.23
2018-03-01T14:19:28.225Z,95036.55
2018-03-01T14:22:52.295Z,95039.83
2018-03-01T14:26:18.614Z,95038.78
2018-03-01T14:30:02.629Z,95029.23
2018-03-01T14:33:26.761Z,95024.45
2018-03-01T14:36:50.826Z,95007.37
2018-03-01T14:40:14.121Z,95009.95
2018-03-01T14:43:38.351Z,95002.67
2018-03-01T14:47:03.501Z,94996.93
2018-03-01T14:50:26.784Z,94996.86
2018-03-01T14:53:50.816Z,94990.99
2018-03-01T14:57:14.915Z,94992.31
2018-03-01T15:00:38.205Z,94975.85
2018-03-01T15:04:01.540Z,94974.26
2018-03-01T15:07:25.580Z,94965.87
2018-03-01T15:10:49.638Z,94968.13
2018-03-01T15:14:17.001Z,94972.88
2018-03-01T15:17:40.320Z,94975.70
2018-03-01T15:21:03.891Z,94971.25
2018-03-01T15:24:28.074Z,94971.69
2018-03-01T15:27:51.468Z,94968.52
2018-03-01T15:31:14.767Z,94964.25
2018-03-01T15:34:38.999Z,94961.38
2018-03-01T15:38:02.357Z,94965.63
2018-03-01T15:41:26.451Z,94965.83
2018-03-01T15:44:49.825Z,94971.92
2018-03-01T15:48:13.873Z,94960.20
2018-03-01T15:51:38.051Z,94951.91
2018-03-01T15:55:02.163Z,94956.52
2018-03-01T15:58:26.526Z,94953.27
2018-03-01T16:01:50.601Z,94947.80
2018-03-01T16:05:14.020Z,94949.98
2018-03-01T16:08:37.347Z,94958.17
2018-03-01T16:12:01.453Z,94957.91
2018-03-01T16:15:24.804Z,94969.53
2018-03-01T16:26:48.983Z,94929.11
2018-03-01T16:30:16.081Z,94933.61
2018-03-01T16:33:39.611Z,94927.83
2018-03-01T16:37:02.927Z,94933.36
2018-03-01T16:40:26.288Z,94934.34
2018-03-01T16:43:49.777Z,94951.61
2018-03-01T16:47:13.313Z,94947.98
2018-03-01T16:50:36.650Z,94941.98
2018-03-01T16:54:00.798Z,94942.30
2018-03-01T16:57:24.053Z,94953.10
2018-03-01T17:00:48.117Z,94955.75
2018-03-01T17:04:11.409Z,94952.11
2018-03-01T17:07:35.441Z,94951.78
2018-03-01T17:10:59.665Z,94948.63
2018-03-01T17:14:22.931Z,94965.16
2018-03-01T17:17:46.257Z,94954.16
2018-03-01T17:21:09.543Z,94952.70
2018-03-01T17:24:33.597Z,94958.62
2018-03-01T17:27:56.919Z,94951.33
2018-03-01T17:31:20.178Z,94952.59
2018-03-01T17:34:43.480Z,94956.69
2018-03-01T17:38:07.583Z,94959.75
2018-03-01T17:41:30.875Z,94949.94
2018-03-01T17:44:54.235Z,94949.25
2018-03-01T17:48:17.514Z,94954.58
2018-03-01T17:51:41.590Z,94948.31
2018-03-01T17:55:04.858Z,94950.00
2018-03-01T17:58:28.149Z,94942.11
2018-03-01T18:01:51.899Z,94947.37
2018-03-01T18:05:15.230Z,94946.09
2018-03-01T18:08:38.520Z,94949.48
2018-03-01T18:12:02.667Z,94948.73
2018-03-01T18:15:28.047Z,94943.23
2018-03-01T18:18:52.302Z,94933.25
2018-03-01T18:22:15.662Z,94941.58
2018-03-01T18:25:39.820Z,94938.72
2018-03-01T18:29:04.724Z,94936.11
2018-03-01T18:32:28.077Z,94935.27
2018-03-01T18:35:51.479Z,94936.14
2018-03-01T18:39:14.907Z,94935.33
2018-03-01T18:42:38.412Z,94936.52
2018-03-01T18:46:02.526Z,94945.09
2018-03-01T18:49:25.883Z,94943.83
2018-03-01T18:52:50.002Z,94934.59
2018-03-01T18:56:13.392Z,94940.27
2018-03-01T18:59:36.743Z,94937.19
2018-03-01T19:03:03.388Z,94941.44
2018-03-01T19:06:29.442Z,94932.59
2018-03-01T19:09:52.954Z,94922.02
2018-03-01T19:13:17.253Z,94918.88
2018-03-01T19:16:41.732Z,94912.86
2018-03-01T19:20:05.835Z,94909.72
2018-03-01T19:23:29.138Z,94906.94
2018-03-01T19:26:53.512Z,94898.73
2018-03-01T19:30:17.004Z,94888.92
2018-03-01T19:33:41.210Z,94894.40
2018-03-01T19:37:04.645Z,94888.58
2018-03-01T19:40:28.058Z,94890.54
2018-03-01T19:43:51.352Z,94892.89
2018-03-01T19:47:15.457Z,94886.25
2018-03-01T19:50:39.512Z,94891.50
2018-03-01T19:54:02.829Z,94892.91
2018-03-01T19:57:26.142Z,94894.70
2018-03-01T20:00:49.442Z,94884.77
2018-03-01T20:04:13.483Z,94889.66
2018-03-01T20:07:37.714Z,94886.63
2018-03-01T20:11:01.775Z,94882.73
2018-03-01T20:14:25.099Z,94878.66
2018-03-01T20:17:48.423Z,94874.86
2018-03-01T20:21:11.851Z,94872.41
2018-03-01T20:24:36.043Z,94876.03
2018-03-01T20:27:59.342Z,94864.66
2018-03-01T20:31:22.725Z,94860.77
2018-03-01T20:34:46.099Z,94858.80
2018-03-01T20:38:09.416Z,94860.83
2018-03-01T20:41:32.749Z,94855.75
2018-03-01T20:44:56.931Z,94853.70
2018-03-01T20:48:20.224Z,94850.56
2018-03-01T20:51:43.501Z,94841.01
2018-03-01T20:55:06.884Z,94852.27
2018-03-01T20:58:30.314Z,94856.98
2018-03-01T21:01:53.684Z,94861.56
2018-03-01T21:05:17.749Z,94856.91
2018-03-01T21:08:41.146Z,94856.89
2018-03-01T21:12:06.194Z,94855.22
2018-03-01T21:15:29.535Z,94856.30
2018-03-01T21:18:53.643Z,94851.86
2018-03-01T21:22:16.971Z,94852.07
2018-03-01T21:25:40.343Z,94852.79
2018-03-01T21:29:03.720Z,94851.08
2018-03-01T21:32:27.807Z,94847.07
2018-03-01T21:35:52.026Z,94841.13
2018-03-01T21:39:15.812Z,94835.04
2018-03-01T21:42:39.169Z,94842.31
2018-03-01T21:46:02.451Z,94834.80
2018-03-01T21:49:25.825Z,94840.20
2018-03-01T21:52:49.232Z,94831.73
2018-03-01T21:56:12.527Z,94826.14
2018-03-01T21:59:36.609Z,94820.75
2018-03-01T22:03:00.816Z,94820.37
2018-03-01T22:06:24.171Z,94814.52
2018-03-01T22:09:48.271Z,94816.16
2018-03-01T22:13:12.804Z,94816.14
2018-03-01T22:16:39.562Z,94807.55
2018-03-01T22:20:03.629Z,94810.80
2018-03-01T22:23:27.005Z,94798.90
2018-03-01T22:26:50.373Z,94798.13
2018-03-01T22:30:13.834Z,94789.91
2018-03-01T22:33:38.242Z,94781.39
2018-03-01T22:37:01.612Z,94781.68
2018-03-01T22:40:25.813Z,94781.41
2018-03-01T22:43:50.034Z,94773.47
2018-03-01T22:47:13.616Z,94779.19
2018-03-01T22:50:36.989Z,94776.55
2018-03-01T22:54:00.294Z,94771.31
2018-03-01T22:57:23.777Z,94765.27
2018-03-01T23:00:57.803Z,94769.14
2018-03-01T23:04:21.935Z,94761.91
2018-03-01T23:07:45.319Z,94761.83
2018-03-01T23:11:09.407Z,94759.45
2018-03-01T23:14:33.554Z,94755.52
2018-03-01T23:17:57.723Z,94749.49
2018-03-01T23:21:21.097Z,94749.50
2018-03-01T23:24:44.376Z,94747.52
2018-03-01T23:28:08.651Z,94742.88
2018-03-01T23:31:32.726Z,94744.22
2018-03-01T23:34:56.503Z,94741.83
2018-03-01T23:38:20.136Z,94734.89
2018-03-01T23:41:43.723Z,94732.05
2018-03-01T23:45:07.294Z,94740.21
2018-03-01T23:48:30.799Z,94749.16
2018-03-01T23:51:54.564Z,94748.37
2018-03-01T23:55:19.248Z,94740.77
2018-03-01T23:58:42.956Z,94738.11
